Time;durP1;ratioP1;P1;durP2;ratioP2;P2;SDS_P1;SDS_P2;PMS_P1;PMS_P2;Temp;Humidity;BMP_temperature;BMP_pressure;BME280_temperature;BME280_humidity;BME280_pressure;Samples;Min_cycle;Max_cycle;Signal;HPM_P1;HPM_P2
2021/05/08 00:00:36;;;;;;;3.42;3.13;;;;;;;;;;5096078;28;20027;-63
2021/05/08 00:03:02;;;;;;;4.03;3.47;;;;;;;;;;5095876;28;20335;-64
2021/05/08 00:05:28;;;;;;;3.95;3.63;;;;;;;;;;5095873;28;20413;-63
2021/05/08 00:07:55;;;;;;;4.75;3.95;;;;;;;;;;5095765;28;20034;-62
2021/05/08 00:10:21;;;;;;;4.50;3.88;;;;;;;;;;5095687;28;20107;-62
2021/05/08 00:12:46;;;;;;;4.30;3.10;;;;;;;;;;5095753;28;20120;-63
2021/05/08 00:15:12;;;;;;;4.00;3.50;;;;;;;;;;5096090;28;20024;-62
2021/05/08 00:17:38;;;;;;;4.53;2.95;;;;;;;;;;5094704;28;20086;-62
2021/05/08 00:20:11;;;;;;;3.47;3.15;;;;;;;;;;5095671;28;20039;-62
2021/05/08 00:22:37;;;;;;;3.25;2.80;;;;;;;;;;5095894;28;20123;-62
2021/05/08 00:25:03;;;;;;;2.10;1.92;;;;;;;;;;5095607;28;20043;-62
2021/05/08 00:27:29;;;;;;;3.78;2.72;;;;;;;;;;5095567;28;20484;-61
2021/05/08 00:29:54;;;;;;;2.63;2.40;;;;;;;;;;5094590;28;20118;-62
2021/05/08 00:32:20;;;;;;;2.72;2.33;;;;;;;;;;5094355;28;20366;-62
2021/05/08 00:34:45;;;;;;;2.70;2.50;;;;;;;;;;5095241;28;20028;-63
2021/05/08 00:37:11;;;;;;;3.00;2.67;;;;;;;;;;5094302;28;20031;-63
2021/05/08 00:39:36;;;;;;;3.33;2.78;;;;;;;;;;5095427;28;20500;-63
2021/05/08 00:42:02;;;;;;;2.75;2.47;;;;;;;;;;5095524;28;20028;-63
2021/05/08 00:44:28;;;;;;;4.32;2.35;;;;;;;;;;5093275;28;20048;-63
2021/05/08 00:46:54;;;;;;;5.47;3.22;;;;;;;;;;5095153;28;20038;-63
2021/05/08 00:49:22;;;;;;;3.70;2.83;;;;;;;;;;5093771;28;20038;-63
2021/05/08 00:51:48;;;;;;;3.75;2.85;;;;;;;;;;5093902;28;20454;-63
2021/05/08 00:54:14;;;;;;;3.58;2.55;;;;;;;;;;5093833;28;20024;-62
2021/05/08 00:56:40;;;;;;;3.40;2.92;;;;;;;;;;5095048;28;20020;-63
2021/05/08 00:59:06;;;;;;;2.65;2.45;;;;;;;;;;5095115;28;20044;-63
2021/05/08 01:01:32;;;;;;;2.88;2.67;;;;;;;;;;5093719;28;20387;-62
2021/05/08 01:03:58;;;;;;;2.85;2.65;;;;;;;;;;5094231;28;20030;-63
2021/05/08 01:06:26;;;;;;;2.63;2.42;;;;;;;;;;5094872;28;20040;-63
2021/05/08 01:08:52;;;;;;;2.38;2.17;;;;;;;;;;5093569;28;20028;-63
2021/05/08 01:11:18;;;;;;;2.75;2.53;;;;;;;;;;5094799;28;20036;-61
2021/05/08 01:13:45;;;;;;;2.53;2.33;;;;;;;;;;5093450;28;20062;-61
2021/05/08 01:16:11;;;;;;;3.03;2.72;;;;;;;;;;5093494;28;20031;-61
2021/05/08 01:18:37;;;;;;;2.50;2.30;;;;;;;;;;5094471;28;20016;-62
2021/05/08 01:21:03;;;;;;;2.70;2.50;;;;;;;;;;5093257;28;20048;-62
2021/05/08 01:23:28;;;;;;;2.72;2.53;;;;;;;;;;5094600;28;20089;-62
2021/05/08 01:25:55;;;;;;;2.63;1.55;;;;;;;;;;5092966;28;20066;-61
2021/05/08 01:28:21;;;;;;;2.15;1.98;;;;;;;;;;5093014;28;20016;-62
2021/05/08 01:30:46;;;;;;;1.95;1.85;;;;;;;;;;5092792;28;20038;-62
2021/05/08 01:33:14;;;;;;;2.78;2.25;;;;;;;;;;5094207;28;20488;-63
2021/05/08 01:35:41;;;;;;;3.00;2.50;;;;;;;;;;5093027;28;20028;-63
2021/05/08 01:38:07;;;;;;;2.03;1.92;;;;;;;;;;5076304;28;20008;-63
2021/05/08 01:40:37;;;;;;;2.65;2.45;;;;;;;;;;5093056;28;20073;-62
2021/05/08 01:43:07;;;;;;;2.05;1.95;;;;;;;;;;5092514;28;20031;-63
2021/05/08 01:45:33;;;;;;;2.45;2.25;;;;;;;;;;5092765;28;20032;-63
2021/05/08 01:48:04;;;;;;;2.00;1.90;;;;;;;;;;5092654;28;20512;-62
2021/05/08 01:50:31;;;;;;;2.42;2.20;;;;;;;;;;5092761;28;20055;-61
2021/05/08 01:52:57;;;;;;;1.98;1.88;;;;;;;;;;5092753;28;20039;-61
2021/05/08 01:55:24;;;;;;;2.25;2.13;;;;;;;;;;5092567;28;20024;-62
2021/05/08 01:57:51;;;;;;;2.60;2.40;;;;;;;;;;5075863;28;20099;-61
2021/05/08 02:00:19;;;;;;;2.67;2.42;;;;;;;;;;5075769;28;20030;-61
2021/05/08 02:02:45;;;;;;;2.45;2.25;;;;;;;;;;5093783;28;20036;-62
2021/05/08 02:05:14;;;;;;;2.17;2.00;;;;;;;;;;5092441;28;20050;-62
2021/05/08 02:07:41;;;;;;;2.45;2.25;;;;;;;;;;5092890;28;20035;-62
2021/05/08 02:10:07;;;;;;;2.28;2.15;;;;;;;;;;5093889;28;20028;-62
2021/05/08 02:12:34;;;;;;;3.15;2.78;;;;;;;;;;5092501;28;20057;-61
2021/05/08 02:14:59;;;;;;;2.38;2.08;;;;;;;;;;5092268;28;20524;-62
2021/05/08 02:17:25;;;;;;;2.35;2.03;;;;;;;;;;5092396;28;20016;-61
2021/05/08 02:19:51;;;;;;;2.42;2.25;;;;;;;;;;5092169;28;20024;-63
2021/05/08 02:22:17;;;;;;;2.35;1.77;;;;;;;;;;5093048;28;20020;-63
2021/05/08 02:24:43;;;;;;;2.50;2.30;;;;;;;;;;5092566;28;20024;-63
2021/05/08 02:27:09;;;;;;;2.83;2.63;;;;;;;;;;5092154;28;20027;-62
2021/05/08 02:29:34;;;;;;;2.70;2.50;;;;;;;;;;5093564;28;20036;-61
2021/05/08 02:32:00;;;;;;;2.83;2.63;;;;;;;;;;5091969;28;20016;-62
2021/05/08 02:34:26;;;;;;;2.50;2.30;;;;;;;;;;5092035;28;20034;-62
2021/05/08 02:36:52;;;;;;;2.53;2.33;;;;;;;;;;5092039;28;20466;-61
2021/05/08 02:39:17;;;;;;;2.70;2.30;;;;;;;;;;5092041;28;20024;-61
2021/05/08 02:41:43;;;;;;;2.85;2.55;;;;;;;;;;5092194;28;20116;-62
2021/05/08 02:44:09;;;;;;;3.30;2.88;;;;;;;;;;5091624;28;20414;-61
2021/05/08 02:46:34;;;;;;;3.13;2.83;;;;;;;;;;5092247;28;20047;-62
2021/05/08 02:49:00;;;;;;;2.85;2.65;;;;;;;;;;5092267;28;20058;-61
2021/05/08 02:51:26;;;;;;;2.67;2.47;;;;;;;;;;5092162;28;20023;-61
2021/05/08 02:53:52;;;;;;;3.13;2.83;;;;;;;;;;5092001;28;20111;-62
2021/05/08 02:56:18;;;;;;;3.17;2.88;;;;;;;;;;5091933;28;20043;-62
2021/05/08 02:58:45;;;;;;;3.20;3.00;;;;;;;;;;5093217;28;20024;-61
2021/05/08 03:01:10;;;;;;;2.92;2.72;;;;;;;;;;5092132;28;20057;-61
2021/05/08 03:03:36;;;;;;;2.33;2.08;;;;;;;;;;5093173;28;20024;-61
2021/05/08 03:06:02;;;;;;;2.92;2.72;;;;;;;;;;5093199;28;20462;-61
2021/05/08 03:08:32;;;;;;;2.78;2.58;;;;;;;;;;5093372;28;20024;-62
2021/05/08 03:11:00;;;;;;;2.50;2.28;;;;;;;;;;5092046;28;20452;-62
2021/05/08 03:13:28;;;;;;;2.70;2.50;;;;;;;;;;5091789;28;20032;-61
2021/05/08 03:15:53;;;;;;;2.90;2.70;;;;;;;;;;5091828;28;20027;-61
2021/05/08 03:18:19;;;;;;;3.17;2.97;;;;;;;;;;5091872;28;20036;-61
2021/05/08 03:20:45;;;;;;;3.08;2.83;;;;;;;;;;5093200;28;20032;-61
2021/05/08 03:23:11;;;;;;;4.00;3.58;;;;;;;;;;5091596;28;20114;-63
2021/05/08 03:25:36;;;;;;;3.30;3.08;;;;;;;;;;5093144;28;20016;-63
2021/05/08 03:28:02;;;;;;;3.47;3.20;;;;;;;;;;5096520;28;20035;-62
2021/05/08 03:30:31;;;;;;;4.05;3.42;;;;;;;;;;5095252;28;20016;-61
2021/05/08 03:33:00;;;;;;;4.15;3.33;;;;;;;;;;5095096;28;20039;-61
2021/05/08 03:35:26;;;;;;;4.78;4.10;;;;;;;;;;5095240;28;20024;-61
2021/05/08 03:37:52;;;;;;;3.85;3.35;;;;;;;;;;5096611;28;20098;-61
2021/05/08 03:40:17;;;;;;;3.38;3.08;;;;;;;;;;5096524;28;20032;-61
2021/05/08 03:42:43;;;;;;;3.92;3.63;;;;;;;;;;5096706;28;20024;-61
2021/05/08 03:45:08;;;;;;;3.95;3.55;;;;;;;;;;5096398;28;20047;-62
2021/05/08 03:47:34;;;;;;;4.18;3.78;;;;;;;;;;5096304;28;20495;-61
2021/05/08 03:49:59;;;;;;;3.60;3.35;;;;;;;;;;5094962;28;20043;-61
2021/05/08 03:52:25;;;;;;;3.35;3.15;;;;;;;;;;5096221;28;20021;-61
2021/05/08 03:54:50;;;;;;;3.50;3.20;;;;;;;;;;5094935;28;20012;-61
2021/05/08 03:57:16;;;;;;;3.88;3.58;;;;;;;;;;5096092;28;20073;-61
2021/05/08 03:59:41;;;;;;;3.85;3.53;;;;;;;;;;5095902;28;20016;-61
2021/05/08 04:02:07;;;;;;;4.88;3.40;;;;;;;;;;5096012;28;20028;-61
2021/05/08 04:04:33;;;;;;;3.70;3.45;;;;;;;;;;5096310;28;20020;-61
2021/05/08 04:06:59;;;;;;;5.55;3.03;;;;;;;;;;5095692;28;20097;-61
2021/05/08 04:09:24;;;;;;;3.92;3.53;;;;;;;;;;5095757;28;20462;-63
2021/05/08 04:11:50;;;;;;;3.60;3.30;;;;;;;;;;5095325;28;20028;-62
2021/05/08 04:14:16;;;;;;;4.70;4.15;;;;;;;;;;5095687;28;20039;-63
2021/05/08 04:16:42;;;;;;;3.53;3.30;;;;;;;;;;5095798;28;20119;-63
2021/05/08 04:19:07;;;;;;;4.20;3.90;;;;;;;;;;5095846;28;20110;-63
2021/05/08 04:21:33;;;;;;;3.95;3.65;;;;;;;;;;5095819;28;20031;-63
2021/05/08 04:23:58;;;;;;;4.05;3.70;;;;;;;;;;5095305;28;20031;-63
2021/05/08 04:26:24;;;;;;;4.20;3.70;;;;;;;;;;5095662;28;20038;-63
2021/05/08 04:28:50;;;;;;;4.35;3.55;;;;;;;;;;5095471;28;20024;-63
2021/05/08 04:31:15;;;;;;;4.20;3.80;;;;;;;;;;5094774;28;20074;-62
2021/05/08 04:33:41;;;;;;;4.90;3.80;;;;;;;;;;5095147;28;20012;-61
2021/05/08 04:36:06;;;;;;;3.70;3.40;;;;;;;;;;5095341;28;20032;-62
2021/05/08 04:38:32;;;;;;;4.45;3.92;;;;;;;;;;5094155;28;20030;-62
2021/05/08 04:40:58;;;;;;;3.90;3.60;;;;;;;;;;5095209;28;20024;-62
2021/05/08 04:43:24;;;;;;;4.22;3.63;;;;;;;;;;5094673;28;20044;-62
2021/05/08 04:45:50;;;;;;;3.17;2.83;;;;;;;;;;5095417;28;20458;-62
2021/05/08 04:48:22;;;;;;;3.50;3.22;;;;;;;;;;5095109;28;20032;-67
2021/05/08 04:50:47;;;;;;;4.25;3.75;;;;;;;;;;5095391;28;20032;-61
2021/05/08 04:53:13;;;;;;;4.25;3.85;;;;;;;;;;5095147;28;20464;-61
2021/05/08 04:55:38;;;;;;;3.80;3.50;;;;;;;;;;5094844;28;20049;-61
2021/05/08 04:58:04;;;;;;;3.72;3.42;;;;;;;;;;5095175;28;20039;-61
2021/05/08 05:00:33;;;;;;;4.15;3.10;;;;;;;;;;5095175;28;20024;-61
2021/05/08 05:02:58;;;;;;;4.13;3.83;;;;;;;;;;5095071;28;20012;-61
2021/05/08 05:05:24;;;;;;;3.38;2.58;;;;;;;;;;5093782;28;20085;-62
2021/05/08 05:07:49;;;;;;;4.00;3.70;;;;;;;;;;5094758;28;20028;-62
2021/05/08 05:10:15;;;;;;;3.85;3.55;;;;;;;;;;5094330;28;20035;-62
2021/05/08 05:12:41;;;;;;;4.88;3.85;;;;;;;;;;5094776;28;20054;-61
2021/05/08 05:15:07;;;;;;;3.25;2.95;;;;;;;;;;5094749;28;20103;-61
2021/05/08 05:17:32;;;;;;;3.65;3.35;;;;;;;;;;5094480;28;20039;-62
2021/05/08 05:19:58;;;;;;;4.05;3.67;;;;;;;;;;5094652;28;20051;-62
2021/05/08 05:22:23;;;;;;;3.83;3.50;;;;;;;;;;5093474;28;20137;-62
2021/05/08 05:24:49;;;;;;;3.92;3.63;;;;;;;;;;5093348;28;20063;-61
2021/05/08 05:27:14;;;;;;;4.15;3.72;;;;;;;;;;5094251;28;20024;-62
2021/05/08 05:29:40;;;;;;;3.42;3.22;;;;;;;;;;5094218;28;20063;-61
2021/05/08 05:32:06;;;;;;;4.07;3.47;;;;;;;;;;5094156;28;20085;-62
2021/05/08 05:34:32;;;;;;;4.80;4.32;;;;;;;;;;5094119;28;20024;-62
2021/05/08 05:36:57;;;;;;;3.10;2.40;;;;;;;;;;5094126;28;20016;-62
2021/05/08 05:39:23;;;;;;;2.63;2.42;;;;;;;;;;5093937;28;20024;-62
2021/05/08 05:41:48;;;;;;;2.58;2.38;;;;;;;;;;5094286;28;20020;-62
2021/05/08 05:44:14;;;;;;;2.78;2.55;;;;;;;;;;5093619;28;20044;-63
2021/05/08 05:46:40;;;;;;;3.20;3.00;;;;;;;;;;5094161;28;20098;-61
2021/05/08 05:49:05;;;;;;;3.10;2.78;;;;;;;;;;5094257;28;20416;-62
2021/05/08 05:51:31;;;;;;;2.88;2.60;;;;;;;;;;5094132;28;20049;-62
2021/05/08 05:53:56;;;;;;;3.53;2.70;;;;;;;;;;5093964;28;20032;-63
2021/05/08 05:56:23;;;;;;;2.33;2.15;;;;;;;;;;5093841;28;20017;-63
2021/05/08 05:58:49;;;;;;;2.50;2.30;;;;;;;;;;5093522;28;20488;-64
2021/05/08 06:01:14;;;;;;;2.78;2.25;;;;;;;;;;5093640;28;20458;-63
2021/05/08 06:03:40;;;;;;;2.60;1.95;;;;;;;;;;5088590;28;20024;-63
2021/05/08 06:06:05;;;;;;;3.00;2.20;;;;;;;;;;5090047;28;20098;-63
2021/05/08 06:08:31;;;;;;;3.05;1.65;;;;;;;;;;5089436;28;20024;-63
2021/05/08 06:10:56;;;;;;;2.90;2.10;;;;;;;;;;5089520;28;20008;-63
2021/05/08 06:13:23;;;;;;;1.88;1.70;;;;;;;;;;5089397;28;20089;-63
2021/05/08 06:15:48;;;;;;;2.08;1.88;;;;;;;;;;5087201;28;20071;-63
2021/05/08 06:18:14;;;;;;;2.13;1.98;;;;;;;;;;5088147;28;20786;-63
2021/05/08 06:20:39;;;;;;;2.17;1.98;;;;;;;;;;5088097;28;20016;-63
2021/05/08 06:23:05;;;;;;;2.10;1.90;;;;;;;;;;5087965;28;20072;-63
2021/05/08 06:25:30;;;;;;;2.47;2.17;;;;;;;;;;5088326;28;20032;-62
2021/05/08 06:27:56;;;;;;;2.65;1.88;;;;;;;;;;5089175;28;20474;-62
2021/05/08 06:30:21;;;;;;;1.38;1.02;;;;;;;;;;5088042;28;20043;-62
2021/05/08 06:32:47;;;;;;;2.78;2.58;;;;;;;;;;5089309;28;20038;-62
2021/05/08 06:35:13;;;;;;;2.67;2.22;;;;;;;;;;5089331;28;20016;-62
2021/05/08 06:37:38;;;;;;;3.28;2.60;;;;;;;;;;5089446;28;20024;-62
2021/05/08 06:40:04;;;;;;;0.82;0.82;;;;;;;;;;5089666;28;20056;-62
2021/05/08 06:42:31;;;;;;;2.55;2.10;;;;;;;;;;5089379;28;20140;-62
2021/05/08 06:44:56;;;;;;;2.72;2.45;;;;;;;;;;5087600;28;20405;-63
2021/05/08 06:47:22;;;;;;;3.30;3.00;;;;;;;;;;5088123;28;20040;-62
2021/05/08 06:49:48;;;;;;;3.17;2.80;;;;;;;;;;5089355;28;20716;-62
2021/05/08 06:52:13;;;;;;;2.58;2.38;;;;;;;;;;5089294;28;20032;-62
2021/05/08 06:54:39;;;;;;;2.97;2.55;;;;;;;;;;5088990;28;20051;-63
2021/05/08 06:57:05;;;;;;;2.72;2.53;;;;;;;;;;5089352;28;20036;-62
2021/05/08 06:59:30;;;;;;;2.63;2.40;;;;;;;;;;5089386;28;20016;-62
2021/05/08 07:01:56;;;;;;;2.80;1.60;;;;;;;;;;5090555;28;20489;-63
2021/05/08 07:04:21;;;;;;;2.05;1.85;;;;;;;;;;5093253;28;20745;-69
2021/05/08 07:06:47;;;;;;;2.25;1.90;;;;;;;;;;5092981;28;20063;-68
2021/05/08 07:09:12;;;;;;;2.20;2.03;;;;;;;;;;5093065;28;20024;-66
2021/05/08 07:11:38;;;;;;;2.47;2.28;;;;;;;;;;5091665;28;20039;-66
2021/05/08 07:14:03;;;;;;;1.85;1.73;;;;;;;;;;5093040;28;20440;-66
2021/05/08 07:16:30;;;;;;;0.95;0.95;;;;;;;;;;5093319;28;20035;-67
2021/05/08 07:18:55;;;;;;;1.98;1.88;;;;;;;;;;5091490;28;20018;-67
2021/05/08 07:21:21;;;;;;;3.08;2.10;;;;;;;;;;5093022;28;20024;-68
2021/05/08 07:23:46;;;;;;;2.75;2.05;;;;;;;;;;5092758;28;20020;-68
2021/05/08 07:26:12;;;;;;;0.80;0.80;;;;;;;;;;5092924;28;20542;-68
2021/05/08 07:28:38;;;;;;;2.28;2.00;;;;;;;;;;5092804;28;20028;-68
2021/05/08 07:31:03;;;;;;;2.42;2.22;;;;;;;;;;5092918;28;20028;-68
2021/05/08 07:33:29;;;;;;;2.63;2.40;;;;;;;;;;5091136;28;20031;-68
2021/05/08 07:35:54;;;;;;;2.70;2.33;;;;;;;;;;5092789;28;20838;-68
2021/05/08 07:38:20;;;;;;;3.45;2.58;;;;;;;;;;5092719;28;20020;-68
2021/05/08 07:40:50;;;;;;;2.10;1.92;;;;;;;;;;5092607;28;20032;-68
2021/05/08 07:43:16;;;;;;;3.33;2.20;;;;;;;;;;5092269;28;20048;-69
2021/05/08 07:45:42;;;;;;;2.45;2.28;;;;;;;;;;5092432;28;20036;-68
2021/05/08 07:48:08;;;;;;;3.15;2.50;;;;;;;;;;5092198;28;20390;-69
2021/05/08 07:50:34;;;;;;;3.05;1.60;;;;;;;;;;5092752;28;20020;-68
2021/05/08 07:53:00;;;;;;;3.30;3.00;;;;;;;;;;5090996;28;20508;-68
2021/05/08 07:55:25;;;;;;;2.30;2.10;;;;;;;;;;5090788;28;20024;-67
2021/05/08 07:57:51;;;;;;;2.15;2.00;;;;;;;;;;5092401;28;20126;-70
2021/05/08 08:00:18;;;;;;;2.60;1.80;;;;;;;;;;5092307;28;20105;-71
2021/05/08 08:02:43;;;;;;;1.48;1.38;;;;;;;;;;5092320;28;20778;-71
2021/05/08 08:05:11;;;;;;;1.30;1.20;;;;;;;;;;5091834;28;20043;-71
2021/05/08 08:07:36;;;;;;;1.20;1.10;;;;;;;;;;5090153;28;20031;-71
2021/05/08 08:10:03;;;;;;;1.42;0.95;;;;;;;;;;5090976;28;20028;-71
2021/05/08 08:12:29;;;;;;;1.45;1.10;;;;;;;;;;5091656;28;20125;-71
2021/05/08 08:14:55;;;;;;;1.25;1.15;;;;;;;;;;5073412;28;20236;-71
2021/05/08 08:17:20;;;;;;;2.28;1.40;;;;;;;;;;5091382;28;20471;-71
2021/05/08 08:19:47;;;;;;;1.17;1.10;;;;;;;;;;5091568;28;20146;-65
2021/05/08 08:22:13;;;;;;;1.80;1.70;;;;;;;;;;5090386;28;20367;-63
2021/05/08 08:24:39;;;;;;;1.92;1.77;;;;;;;;;;5091379;28;20546;-63
2021/05/08 08:27:05;;;;;;;1.92;1.83;;;;;;;;;;5090806;28;20165;-65
2021/05/08 08:29:30;;;;;;;2.17;1.92;;;;;;;;;;5090212;28;20473;-67
2021/05/08 08:31:56;;;;;;;1.98;1.60;;;;;;;;;;5091489;28;20568;-68
2021/05/08 08:34:21;;;;;;;1.27;1.00;;;;;;;;;;5091323;28;20750;-66
2021/05/08 08:36:47;;;;;;;2.38;1.63;;;;;;;;;;5091534;28;20465;-65
2021/05/08 08:39:12;;;;;;;1.67;1.58;;;;;;;;;;5091480;28;20028;-65
2021/05/08 08:41:38;;;;;;;1.80;1.30;;;;;;;;;;5091370;28;20024;-65
2021/05/08 08:44:09;;;;;;;1.38;1.25;;;;;;;;;;5090442;28;20070;-66
2021/05/08 08:46:41;;;;;;;1.85;1.75;;;;;;;;;;5090057;28;20047;-65
2021/05/08 08:49:07;;;;;;;2.05;1.80;;;;;;;;;;5091196;28;20032;-65
2021/05/08 08:51:32;;;;;;;1.92;1.80;;;;;;;;;;5091042;28;20028;-65
2021/05/08 08:53:58;;;;;;;1.80;1.70;;;;;;;;;;5089600;28;20034;-65
2021/05/08 08:56:25;;;;;;;3.00;2.47;;;;;;;;;;5091118;28;20024;-65
2021/05/08 08:58:56;;;;;;;2.55;2.15;;;;;;;;;;5091120;28;20057;-65
2021/05/08 09:01:22;;;;;;;641.35;333.00;;;;;;;;;;5091152;28;20032;-65
2021/05/08 09:03:47;;;;;;;18.33;10.60;;;;;;;;;;5090723;28;20032;-65
2021/05/08 09:06:13;;;;;;;6.53;4.30;;;;;;;;;;5089385;28;20035;-65
2021/05/08 09:08:39;;;;;;;489.05;271.70;;;;;;;;;;5090697;28;20031;-65
2021/05/08 09:11:21;;;;;;;553.10;339.75;;;;;;;;;;5089649;28;20040;-65
2021/05/08 09:13:47;;;;;;;50.75;34.20;;;;;;;;;;5088154;28;20483;-65
2021/05/08 09:16:12;;;;;;;143.18;98.63;;;;;;;;;;5088693;28;20107;-66
2021/05/08 09:18:39;;;;;;;42.75;33.20;;;;;;;;;;5090626;28;20465;-66
2021/05/08 09:21:09;;;;;;;12.90;11.50;;;;;;;;;;5090511;28;20028;-66
2021/05/08 09:23:39;;;;;;;9.40;7.60;;;;;;;;;;5090319;28;20036;-66
2021/05/08 09:26:06;;;;;;;3.63;3.05;;;;;;;;;;5090452;28;20225;-66
2021/05/08 09:28:35;;;;;;;10.23;9.20;;;;;;;;;;5090509;28;20119;-65
2021/05/08 09:31:02;;;;;;;22.67;16.87;;;;;;;;;;5088944;28;20122;-66
2021/05/08 09:33:28;;;;;;;40.83;31.77;;;;;;;;;;5090128;28;20111;-67
2021/05/08 09:36:02;;;;;;;24.40;18.98;;;;;;;;;;5086836;28;20462;-65
2021/05/08 09:38:30;;;;;;;9.57;7.65;;;;;;;;;;5087139;28;20032;-66
2021/05/08 09:40:56;;;;;;;6.50;5.40;;;;;;;;;;5089432;28;20020;-65
2021/05/08 09:43:22;;;;;;;16.13;14.45;;;;;;;;;;5088928;28;20078;-65
2021/05/08 09:45:52;;;;;;;3.90;3.50;;;;;;;;;;5090408;28;20035;-66
2021/05/08 09:48:17;;;;;;;2.70;2.50;;;;;;;;;;5090268;28;20074;-65
2021/05/08 09:50:43;;;;;;;2.00;1.90;;;;;;;;;;5090186;28;20030;-65
2021/05/08 09:53:09;;;;;;;2.35;2.15;;;;;;;;;;5089740;28;20732;-65
2021/05/08 09:55:35;;;;;;;2.00;1.80;;;;;;;;;;5088301;28;20491;-65
2021/05/08 09:58:02;;;;;;;1.65;1.55;;;;;;;;;;5090021;28;20050;-65
2021/05/08 10:00:28;;;;;;;2.25;2.05;;;;;;;;;;5090121;28;20031;-65
2021/05/08 10:03:03;;;;;;;2.00;1.83;;;;;;;;;;5090067;28;20028;-63
2021/05/08 10:05:29;;;;;;;2.78;2.53;;;;;;;;;;5089707;28;20028;-63
2021/05/08 10:07:55;;;;;;;2.95;2.50;;;;;;;;;;5089828;28;20371;-63
2021/05/08 10:10:21;;;;;;;2.83;1.55;;;;;;;;;;5089829;28;20462;-63
2021/05/08 10:12:46;;;;;;;1.70;1.60;;;;;;;;;;5089817;28;20031;-63
2021/05/08 10:15:12;;;;;;;1.20;1.05;;;;;;;;;;5089664;28;20024;-63
2021/05/08 10:17:38;;;;;;;2.55;1.90;;;;;;;;;;5089757;28;20020;-63
2021/05/08 10:20:05;;;;;;;2.35;2.15;;;;;;;;;;5088728;28;20036;-64
2021/05/08 10:22:33;;;;;;;2.97;1.60;;;;;;;;;;5089892;28;20462;-63
2021/05/08 10:25:01;;;;;;;3.13;2.92;;;;;;;;;;5089712;28;20031;-63
2021/05/08 10:27:26;;;;;;;2.85;2.63;;;;;;;;;;5089509;28;20024;-63
2021/05/08 10:29:52;;;;;;;2.22;1.88;;;;;;;;;;5088483;28;20047;-63
2021/05/08 10:32:19;;;;;;;2.45;2.25;;;;;;;;;;5089408;28;20028;-63
2021/05/08 10:34:51;;;;;;;1.58;1.30;;;;;;;;;;5089855;28;20050;-63
2021/05/08 10:37:17;;;;;;;2.45;2.10;;;;;;;;;;5093020;28;20043;-63
2021/05/08 10:39:46;;;;;;;2.70;2.50;;;;;;;;;;5092595;28;20374;-63
2021/05/08 10:42:12;;;;;;;2.50;2.33;;;;;;;;;;5093923;28;20114;-63
2021/05/08 10:44:44;;;;;;;2.40;2.20;;;;;;;;;;5093179;28;20150;-63
2021/05/08 10:47:13;;;;;;;2.42;2.17;;;;;;;;;;5093681;28;20024;-64
2021/05/08 10:49:41;;;;;;;3.08;2.30;;;;;;;;;;5091869;28;20114;-63
2021/05/08 10:52:06;;;;;;;4.72;3.08;;;;;;;;;;5092185;28;20032;-63
2021/05/08 10:54:44;;;;;;;2.38;2.17;;;;;;;;;;5093007;28;20050;-63
2021/05/08 10:57:14;;;;;;;2.22;2.03;;;;;;;;;;5092294;28;20034;-63
2021/05/08 10:59:58;;;;;;;3.03;1.90;;;;;;;;;;5093778;28;20050;-63
2021/05/08 11:02:46;;;;;;;1.33;1.23;;;;;;;;;;5093268;28;20032;-63
2021/05/08 11:05:53;;;;;;;2.03;1.83;;;;;;;;;;5092667;28;20047;-63
2021/05/08 11:08:24;;;;;;;1.83;1.30;;;;;;;;;;5093257;28;20036;-63
2021/05/08 11:10:53;;;;;;;1.67;1.58;;;;;;;;;;5093181;28;20028;-63
2021/05/08 11:13:21;;;;;;;1.77;1.50;;;;;;;;;;5092979;28;20020;-63
2021/05/08 11:15:49;;;;;;;1.15;1.00;;;;;;;;;;5091557;28;20050;-63
2021/05/08 11:18:45;;;;;;;2.40;1.00;;;;;;;;;;5092709;28;20509;-63
2021/05/08 11:21:11;;;;;;;1.38;1.27;;;;;;;;;;5091760;28;20032;-63
2021/05/08 11:23:43;;;;;;;1.67;1.58;;;;;;;;;;5093013;28;20485;-63
2021/05/08 11:26:33;;;;;;;1.85;1.75;;;;;;;;;;5091273;28;20031;-63
2021/05/08 11:29:01;;;;;;;2.28;1.63;;;;;;;;;;5093125;28;20040;-62
2021/05/08 11:31:34;;;;;;;1.75;1.65;;;;;;;;;;5093063;28;20090;-63
2021/05/08 11:34:04;;;;;;;2.70;1.65;;;;;;;;;;5092756;28;20063;-63
2021/05/08 11:36:30;;;;;;;1.77;1.65;;;;;;;;;;5092786;28;20509;-63
2021/05/08 11:39:15;;;;;;;1.67;1.58;;;;;;;;;;5093094;28;20544;-63
2021/05/08 11:41:42;;;;;;;1.40;1.30;;;;;;;;;;5092625;28;20107;-63
2021/05/08 11:44:08;;;;;;;1.38;1.27;;;;;;;;;;5092273;28;20386;-63
2021/05/08 11:46:35;;;;;;;2.42;1.58;;;;;;;;;;5090327;28;20452;-63
2021/05/08 11:49:00;;;;;;;1.38;1.00;;;;;;;;;;5092736;28;20023;-62
2021/05/08 11:51:26;;;;;;;2.08;1.98;;;;;;;;;;5092549;28;20599;-62
2021/05/08 11:54:04;;;;;;;1.58;1.48;;;;;;;;;;5092127;28;20012;-63
2021/05/08 11:56:30;;;;;;;1.67;1.58;;;;;;;;;;5092106;28;20035;-62
2021/05/08 11:58:56;;;;;;;1.52;1.42;;;;;;;;;;5092510;28;20016;-62
2021/05/08 12:01:21;;;;;;;2.47;2.28;;;;;;;;;;5092149;28;20035;-62
2021/05/08 12:03:54;;;;;;;1.50;1.40;;;;;;;;;;5092145;28;20118;-63
2021/05/08 12:06:22;;;;;;;2.00;1.90;;;;;;;;;;5090681;28;20531;-63
2021/05/08 12:08:48;;;;;;;1.45;1.38;;;;;;;;;;5090824;28;20042;-63
2021/05/08 12:11:18;;;;;;;2.28;2.17;;;;;;;;;;5092079;28;20024;-62
2021/05/08 12:13:43;;;;;;;2.30;2.10;;;;;;;;;;5090551;28;20098;-62
2021/05/08 12:16:10;;;;;;;5.35;3.97;;;;;;;;;;5091787;28;20034;-63
2021/05/08 12:18:36;;;;;;;2.03;1.85;;;;;;;;;;5091921;28;20051;-62
2021/05/08 12:21:02;;;;;;;1.98;1.88;;;;;;;;;;5091591;28;20058;-62
2021/05/08 12:23:28;;;;;;;2.45;2.22;;;;;;;;;;5091599;28;20035;-62
2021/05/08 12:26:18;;;;;;;2.42;2.08;;;;;;;;;;5091516;28;20058;-62
2021/05/08 12:28:44;;;;;;;2.33;1.73;;;;;;;;;;5082688;28;20048;-63
2021/05/08 12:31:18;;;;;;;2.33;2.13;;;;;;;;;;5091637;28;20031;-62
2021/05/08 12:33:46;;;;;;;2.00;1.90;;;;;;;;;;5091553;28;20466;-62
2021/05/08 12:36:20;;;;;;;2.95;2.42;;;;;;;;;;5091611;28;20078;-62
2021/05/08 12:38:47;;;;;;;1.95;1.85;;;;;;;;;;5090488;28;20044;-72
2021/05/08 12:41:22;;;;;;;1.85;1.75;;;;;;;;;;5091637;28;20390;-62
2021/05/08 12:43:48;;;;;;;2.22;2.03;;;;;;;;;;5091037;28;20046;-62
2021/05/08 12:46:14;;;;;;;2.95;2.00;;;;;;;;;;5091276;28;20032;-65
2021/05/08 12:48:40;;;;;;;2.17;1.88;;;;;;;;;;5091664;28;20035;-65
2021/05/08 12:51:25;;;;;;;1.88;1.70;;;;;;;;;;5090628;28;20020;-64
2021/05/08 12:54:10;;;;;;;1.80;1.70;;;;;;;;;;5090724;28;20420;-64
2021/05/08 12:56:36;;;;;;;2.90;1.92;;;;;;;;;;5089418;28;20047;-71
2021/05/08 12:59:01;;;;;;;1.60;1.50;;;;;;;;;;5090601;28;20553;-67
2021/05/08 13:01:27;;;;;;;2.47;1.90;;;;;;;;;;5089833;28;20072;-67
2021/05/08 13:03:52;;;;;;;2.13;1.80;;;;;;;;;;5091013;28;20028;-67
2021/05/08 13:06:22;;;;;;;2.58;1.90;;;;;;;;;;5090835;28;20036;-66
2021/05/08 13:08:49;;;;;;;1.42;1.33;;;;;;;;;;5090373;28;20035;-66
2021/05/08 13:11:33;;;;;;;1.92;1.52;;;;;;;;;;5091005;28;20031;-66
2021/05/08 13:14:17;;;;;;;1.55;1.45;;;;;;;;;;5090347;28;20123;-66
2021/05/08 13:16:43;;;;;;;1.80;1.48;;;;;;;;;;5090455;28;20034;-67
2021/05/08 13:19:09;;;;;;;1.83;1.70;;;;;;;;;;5089288;28;20111;-67
2021/05/08 13:21:36;;;;;;;2.42;1.65;;;;;;;;;;5090749;28;20028;-68
2021/05/08 13:24:01;;;;;;;1.20;1.13;;;;;;;;;;5090718;28;20074;-67
2021/05/08 13:26:27;;;;;;;2.15;1.45;;;;;;;;;;5090227;28;20031;-70
2021/05/08 13:28:52;;;;;;;1.80;1.70;;;;;;;;;;5089428;28;20351;-67
2021/05/08 13:31:18;;;;;;;1.60;1.50;;;;;;;;;;5089905;28;20020;-67
2021/05/08 13:33:44;;;;;;;1.40;1.20;;;;;;;;;;5093571;28;20017;-67
2021/05/08 13:36:12;;;;;;;0.95;0.88;;;;;;;;;;5093911;28;20393;-67
2021/05/08 13:38:37;;;;;;;1.30;1.20;;;;;;;;;;5094054;28;20039;-67
2021/05/08 13:41:03;;;;;;;1.55;1.30;;;;;;;;;;5092702;28;20052;-67
2021/05/08 13:43:29;;;;;;;1.08;1.05;;;;;;;;;;5093481;28;20040;-67
2021/05/08 13:45:55;;;;;;;1.17;1.00;;;;;;;;;;5093857;28;20036;-67
2021/05/08 13:48:20;;;;;;;0.30;0.30;;;;;;;;;;5092633;28;20031;-67
2021/05/08 13:50:47;;;;;;;1.88;1.77;;;;;;;;;;5093928;28;20119;-67
2021/05/08 13:53:12;;;;;;;1.67;1.50;;;;;;;;;;5093619;28;20375;-67
2021/05/08 13:55:38;;;;;;;1.98;1.88;;;;;;;;;;5093366;28;20107;-67
2021/05/08 13:58:03;;;;;;;2.30;2.00;;;;;;;;;;5093541;28;20008;-67
2021/05/08 14:00:29;;;;;;;2.30;1.73;;;;;;;;;;5092264;28;20046;-67
2021/05/08 14:02:54;;;;;;;1.40;1.30;;;;;;;;;;5092332;28;20024;-67
2021/05/08 14:05:20;;;;;;;2.40;2.20;;;;;;;;;;5093531;28;20107;-67
2021/05/08 14:07:46;;;;;;;2.35;1.95;;;;;;;;;;5093207;28;20028;-67
2021/05/08 14:10:11;;;;;;;1.80;1.70;;;;;;;;;;5091094;28;20040;-67
2021/05/08 14:12:37;;;;;;;1.92;1.77;;;;;;;;;;5093355;28;20069;-67
2021/05/08 14:15:02;;;;;;;2.83;2.63;;;;;;;;;;5093371;28;20469;-67
2021/05/08 14:17:29;;;;;;;2.90;2.70;;;;;;;;;;5093107;28;20020;-67
2021/05/08 14:19:54;;;;;;;1.80;1.48;;;;;;;;;;5093239;28;20059;-67
2021/05/08 14:22:24;;;;;;;2.60;1.50;;;;;;;;;;5093692;28;20054;-67
2021/05/08 14:24:50;;;;;;;1.65;1.55;;;;;;;;;;5093613;28;20028;-67
2021/05/08 14:27:15;;;;;;;1.90;1.80;;;;;;;;;;5092343;28;20028;-66
2021/05/08 14:29:42;;;;;;;2.60;2.40;;;;;;;;;;5093627;28;20039;-67
2021/05/08 14:32:07;;;;;;;1.95;1.63;;;;;;;;;;5093512;28;20012;-66
2021/05/08 14:34:33;;;;;;;2.00;1.27;;;;;;;;;;5093484;28;20112;-67
2021/05/08 14:36:59;;;;;;;1.92;1.83;;;;;;;;;;5092187;28;20450;-66
2021/05/08 14:39:25;;;;;;;1.50;1.40;;;;;;;;;;5093531;28;20024;-62